Chino Valley, AZ

10:07 AM MST on December 25, 2014 (GMT -0700)
Chino Valley 1 North | Change Station
CLOSE
Current Station
Personal Weather Station
Location: Chino Valley, AZ
Elevation: 4734 ft
Nearby Weather Stations

Elev 4734 ft 34.75 °N, 112.46 °W | Updated 9 seconds ago

Overcast
Overcast
42.8 °F
Feels Like 34 °F
N
20.0
Wind Variable Wind from West
Gusts 29.0 mph

Today
High -- | Low -- °F
--% Chance of Precip.
Yesterday
High -- | Low -- °F
Precip. -- in
7:35 AM 5:24 PM
Waxing Crescent, 17% visible
Pressure 29.66 in
Visibility 10.0 miles
Clouds Scattered Clouds 6000 ft
Windchill 34 °F
Dew Point 24 °F
Humidity 47%
Rainfall 0.00 in
Snow Depth Not available.
UV 1 out of 12
Pollen 2.30 out of 12
Air Quality Not available.
Flu Activity Not available.
METAR KPRC 251653Z 23014KT 10SM SCT060 05/M06 A2973 RMK AO2 SLP042 T00501061

More Conditions Fewer Conditions

Pressure 29.66 in
Visibility 10.0 miles
Clouds Scattered Clouds 6000 ft
Windchill 34 °F
Dew Point 24 °F
Humidity 47%
Rainfall 0.00 in
Snow Depth Not available.
UV 1 out of 12
Pollen 2.30 out of 12
Air Quality Not available.
Flu Activity Not available.
METAR KPRC 251653Z 23014KT 10SM SCT060 05/M06 A2973 RMK AO2 SLP042 T00501061

More Conditions Fewer Conditions

10-Day Weather Forecast

Almanac

Astronomy

Dec. 25, 2014 Rise Set
Actual Time
Civil Twilight
Nautical Twilight
Astronomical Twilight
Moon
Length of Visible Light
Length of Day
Tomorrow will be .
, % of the Moon is Illuminated

Today's Extremes

State Highs State Lows

Community

WunderPhotos

Upload Photos

1,780,343 photos uploaded!

WunderBlogs® & News

Nearby

Air Quality

  Air Quality AQ Index Pollutant
Not available.

Snow Depth

Station Depth Elevation

Earthquake Activity

City Distance Mag. Time & Date
Minimum magnitude displayed is 2.5.

Coastal Water Temperatures

Place Temperature

Nearby Weather Stations